Time;durP1;ratioP1;P1;durP2;ratioP2;P2;SDS_P1;SDS_P2;PMS_P1;PMS_P2;Temp;Humidity;BMP_temperature;BMP_pressure;BME280_temperature;BME280_humidity;BME280_pressure;Samples;Min_cycle;Max_cycle;Signal;HPM_P1;HPM_P2
2020/12/20 00:02:18;;;;;;;0.20;0.10;;;;;;;5.50;100.00;100548.19;5000151;28;20852;-49
2020/12/20 00:04:44;;;;;;;2.70;1.47;;;;;;;5.32;100.00;100549.09;5006516;28;20462;-49
2020/12/20 00:07:19;;;;;;;0.20;0.20;;;;;;;5.43;100.00;100553.47;5007680;28;20995;-50
2020/12/20 00:09:46;;;;;;;0.20;0.10;;;;;;;5.54;100.00;100555.19;5012546;28;20980;-49
2020/12/20 00:12:12;;;;;;;0.20;0.20;;;;;;;5.66;100.00;100556.91;5012482;28;20453;-49
2020/12/20 00:14:39;;;;;;;0.20;0.10;;;;;;;5.63;100.00;100560.44;5012340;28;20453;-49
2020/12/20 00:17:11;;;;;;;0.20;0.20;;;;;;;5.64;100.00;100559.53;5012463;28;20496;-50
2020/12/20 00:19:38;;;;;;;0.40;0.40;;;;;;;5.71;100.00;100554.22;5012203;28;20822;-50
2020/12/20 00:22:08;;;;;;;1.57;1.57;;;;;;;5.74;100.00;100554.22;5011776;28;20453;-50
2020/12/20 00:24:35;;;;;;;0.40;0.40;;;;;;;5.66;100.00;100549.00;5012225;28;20953;-50
2020/12/20 00:27:03;;;;;;;0.30;0.20;;;;;;;5.70;100.00;100549.84;5012104;28;20476;-50
2020/12/20 00:29:32;;;;;;;0.20;0.20;;;;;;;5.70;100.00;100552.47;5012446;28;20452;-50
2020/12/20 00:32:02;;;;;;;1.17;1.17;;;;;;;5.72;100.00;100556.84;5008902;28;20471;-49
2020/12/20 00:34:28;;;;;;;0.20;0.10;;;;;;;5.78;100.00;100555.97;5002807;28;20448;-49
2020/12/20 00:36:54;;;;;;;0.20;0.10;;;;;;;5.73;100.00;100553.34;5011672;28;21000;-50
2020/12/20 00:39:21;;;;;;;0.30;0.20;;;;;;;5.72;100.00;100548.94;5012184;28;20456;-50
2020/12/20 00:41:53;;;;;;;0.20;0.10;;;;;;;5.69;100.00;100556.88;5012122;28;20464;-49
2020/12/20 00:44:20;;;;;;;0.30;0.20;;;;;;;5.70;100.00;100563.03;5012158;28;20449;-49
2020/12/20 00:46:47;;;;;;;0.20;0.20;;;;;;;5.75;100.00;100553.31;5011930;28;20475;-50
2020/12/20 00:49:21;;;;;;;2.50;2.47;;;;;;;5.80;100.00;100551.56;5012513;28;20449;-49
2020/12/20 00:51:48;;;;;;;0.87;0.87;;;;;;;5.82;100.00;100541.88;5011916;28;20448;-49
2020/12/20 00:54:14;;;;;;;0.63;0.63;;;;;;;5.72;100.00;100546.31;5012272;28;20885;-50
2020/12/20 00:56:41;;;;;;;0.30;0.20;;;;;;;5.77;100.00;100546.31;5011947;28;20993;-50
2020/12/20 00:59:08;;;;;;;1.10;1.10;;;;;;;5.81;100.00;100541.00;4999093;28;20605;-51
2020/12/20 01:01:34;;;;;;;0.30;0.20;;;;;;;5.88;100.00;100533.91;4995760;28;20456;-50
2020/12/20 01:04:00;;;;;;;0.20;0.10;;;;;;;5.86;100.00;100548.88;5001156;28;20461;-50
2020/12/20 01:06:26;;;;;;;4.87;3.63;;;;;;;5.82;100.00;100537.47;4999125;28;20949;-50
2020/12/20 01:08:52;;;;;;;0.30;0.17;;;;;;;5.78;100.00;100543.66;5012143;28;20444;-50
2020/12/20 01:11:19;;;;;;;0.30;0.20;;;;;;;5.73;100.00;100534.00;5012053;28;20449;-50
2020/12/20 01:13:50;;;;;;;0.30;0.20;;;;;;;5.79;100.00;100534.84;5011724;28;20448;-49
2020/12/20 01:16:18;;;;;;;0.20;0.20;;;;;;;5.94;100.00;100540.09;5011822;28;20469;-50
2020/12/20 01:18:44;;;;;;;0.20;0.10;;;;;;;5.91;100.00;100533.94;5011750;28;20547;-49
2020/12/20 01:21:10;;;;;;;1.13;1.13;;;;;;;5.92;100.00;100531.31;5011748;28;20455;-50
2020/12/20 01:23:37;;;;;;;0.30;0.10;;;;;;;5.84;100.00;100517.22;5012003;28;20449;-50
2020/12/20 01:26:04;;;;;;;0.30;0.20;;;;;;;5.91;100.00;100526.91;5012219;28;20476;-50
2020/12/20 01:28:31;;;;;;;0.20;0.20;;;;;;;5.93;100.00;100525.13;5012045;28;20499;-50
2020/12/20 01:30:58;;;;;;;0.20;0.10;;;;;;;5.92;100.00;100533.06;5012133;28;20456;-50
2020/12/20 01:33:24;;;;;;;0.30;0.20;;;;;;;5.96;100.00;100531.28;4998716;28;20459;-50
2020/12/20 01:35:50;;;;;;;0.20;0.20;;;;;;;5.83;100.00;100538.34;5015185;28;20530;-50
2020/12/20 01:38:17;;;;;;;0.30;0.20;;;;;;;5.84;100.00;100537.47;5015180;28;20566;-50
2020/12/20 01:40:54;;;;;;;0.30;0.20;;;;;;;5.92;100.00;100530.44;5014914;28;21034;-50
2020/12/20 01:43:20;;;;;;;0.30;0.20;;;;;;;5.91;100.00;100544.50;5015346;28;20475;-50
2020/12/20 01:45:47;;;;;;;0.20;0.10;;;;;;;5.85;100.00;100544.50;5015358;28;20550;-50
2020/12/20 01:48:14;;;;;;;0.37;0.37;;;;;;;5.60;100.00;100544.59;5015052;28;20819;-49
2020/12/20 01:50:44;;;;;;;0.30;0.20;;;;;;;5.67;100.00;100547.22;5015582;28;20933;-49
2020/12/20 01:53:14;;;;;;;0.67;0.67;;;;;;;5.75;100.00;100548.03;5015019;28;20452;-50
2020/12/20 01:55:46;;;;;;;0.20;0.20;;;;;;;5.82;100.00;100547.16;5014855;28;20989;-49
2020/12/20 01:58:12;;;;;;;0.20;0.20;;;;;;;5.91;100.00;100548.03;5014970;28;20473;-49
2020/12/20 02:00:38;;;;;;;0.83;0.83;;;;;;;5.92;100.00;100548.91;5005526;28;20464;-49
2020/12/20 02:03:04;;;;;;;0.20;0.10;;;;;;;5.93;100.00;100550.66;5000382;28;20455;-49
2020/12/20 02:05:30;;;;;;;0.30;0.20;;;;;;;5.91;100.00;100540.09;5002639;28;20962;-49
2020/12/20 02:07:56;;;;;;;0.30;0.20;;;;;;;5.89;100.00;100546.22;5013722;28;20449;-49
2020/12/20 02:10:23;;;;;;;0.20;0.17;;;;;;;5.90;100.00;100537.47;5014751;28;20453;-49
2020/12/20 02:12:49;;;;;;;0.30;0.20;;;;;;;5.89;100.00;100535.66;5014255;28;20535;-49
2020/12/20 02:15:15;;;;;;;0.20;0.20;;;;;;;5.90;100.00;100529.56;5014196;28;20451;-49
2020/12/20 02:17:41;;;;;;;0.30;0.20;;;;;;;5.94;100.00;100529.53;5014971;28;20504;-48
2020/12/20 02:20:15;;;;;;;0.20;0.20;;;;;;;5.91;100.00;100531.31;5014377;28;20456;-49
2020/12/20 02:22:42;;;;;;;0.20;0.10;;;;;;;5.98;100.00;100525.09;5014520;28;20452;-49
2020/12/20 02:25:08;;;;;;;0.20;0.13;;;;;;;5.95;100.00;100527.75;5014569;28;20524;-49
2020/12/20 02:27:34;;;;;;;0.20;0.20;;;;;;;5.88;100.00;100526.88;5008199;28;21064;-49
2020/12/20 02:30:00;;;;;;;0.20;0.20;;;;;;;5.97;100.00;100544.47;5007887;28;20453;-50
2020/12/20 02:32:26;;;;;;;0.53;0.53;;;;;;;6.09;100.00;100547.03;5005002;28;20966;-49
2020/12/20 02:34:52;;;;;;;0.40;0.37;;;;;;;6.13;100.00;100548.75;5007632;28;20996;-48
2020/12/20 02:37:19;;;;;;;0.20;0.20;;;;;;;6.00;100.00;100541.78;4994522;28;20477;-49
2020/12/20 02:39:46;;;;;;;0.20;0.10;;;;;;;5.82;100.00;100533.97;5007495;28;20457;-50
2020/12/20 02:42:12;;;;;;;0.93;0.93;;;;;;;5.79;100.00;100533.97;5014660;28;20448;-50
2020/12/20 02:44:38;;;;;;;0.23;0.20;;;;;;;5.97;100.00;100539.19;5013375;28;20452;-49
2020/12/20 02:47:04;;;;;;;0.40;0.40;;;;;;;6.01;100.00;100534.75;5013652;28;20479;-49
2020/12/20 02:49:30;;;;;;;0.20;0.20;;;;;;;5.98;100.00;100535.66;5013877;28;20452;-49
2020/12/20 02:51:57;;;;;;;0.20;0.20;;;;;;;6.03;100.00;100528.59;5013790;28;20453;-49
2020/12/20 02:54:23;;;;;;;0.30;0.10;;;;;;;6.09;100.00;100520.63;5013481;28;20448;-48
2020/12/20 02:56:49;;;;;;;1.70;1.60;;;;;;;5.97;100.00;100527.75;5013611;28;20519;-49
2020/12/20 02:59:15;;;;;;;0.20;0.10;;;;;;;6.09;100.00;100517.13;5000801;28;20493;-50
2020/12/20 03:01:41;;;;;;;0.20;0.20;;;;;;;5.94;100.00;100516.34;5006626;28;20457;-49
2020/12/20 03:04:07;;;;;;;0.20;0.20;;;;;;;5.88;100.00;100507.53;5007893;28;20465;-49
2020/12/20 03:06:33;;;;;;;0.30;0.20;;;;;;;5.81;100.00;100514.63;5001777;28;20507;-49
2020/12/20 03:08:59;;;;;;;0.30;0.10;;;;;;;6.07;100.00;100519.78;5013781;28;20495;-49
2020/12/20 03:11:26;;;;;;;0.20;0.10;;;;;;;6.09;100.00;100523.28;5013711;28;20459;-49
2020/12/20 03:13:52;;;;;;;0.20;0.10;;;;;;;6.18;100.00;100525.00;5013424;28;20445;-49
2020/12/20 03:16:18;;;;;;;0.20;0.17;;;;;;;6.17;100.00;100516.19;5013678;28;20885;-48
2020/12/20 03:18:45;;;;;;;0.20;0.20;;;;;;;6.17;100.00;100518.84;5013031;28;20499;-49
2020/12/20 03:21:11;;;;;;;0.20;0.20;;;;;;;6.17;100.00;100516.19;5013251;28;20448;-49
2020/12/20 03:23:37;;;;;;;0.20;0.17;;;;;;;6.16;100.00;100519.69;5013031;28;20449;-49
2020/12/20 03:26:04;;;;;;;0.20;0.17;;;;;;;6.21;100.00;100519.69;5012908;28;20508;-49
2020/12/20 03:28:30;;;;;;;0.30;0.17;;;;;;;6.22;100.00;100527.59;5013327;28;20449;-49
2020/12/20 03:30:56;;;;;;;0.30;0.13;;;;;;;6.16;100.00;100532.00;5013142;28;20452;-49
2020/12/20 03:33:22;;;;;;;0.20;0.20;;;;;;;6.15;100.00;100528.50;4999523;28;20462;-49
2020/12/20 03:35:48;;;;;;;0.20;0.10;;;;;;;6.11;100.00;100529.41;5013034;28;20473;-49
2020/12/20 03:38:15;;;;;;;0.30;0.20;;;;;;;6.01;100.00;100530.34;5013032;28;20496;-48
2020/12/20 03:40:41;;;;;;;0.20;0.20;;;;;;;5.91;100.00;100532.19;5012836;28;20457;-49
2020/12/20 03:43:07;;;;;;;0.20;0.10;;;;;;;5.84;100.00;100533.06;5013272;28;20452;-49
2020/12/20 03:45:33;;;;;;;3.03;2.73;;;;;;;5.79;100.00;100521.66;5012968;28;20480;-49
2020/12/20 03:47:59;;;;;;;0.37;0.37;;;;;;;5.92;100.00;100526.03;5012975;28;20451;-50
2020/12/20 03:50:25;;;;;;;0.20;0.10;;;;;;;5.96;100.00;100524.25;5013264;28;20491;-50
2020/12/20 03:52:51;;;;;;;0.67;0.67;;;;;;;5.99;100.00;100523.34;5012736;28;20865;-50
2020/12/20 03:55:17;;;;;;;0.30;0.20;;;;;;;5.99;100.00;100525.97;5012576;28;20459;-50
2020/12/20 03:57:43;;;;;;;0.30;0.20;;;;;;;6.06;100.00;100525.06;5010714;28;20488;-50
2020/12/20 04:00:10;;;;;;;0.20;0.20;;;;;;;6.01;100.00;100529.47;5001601;28;20456;-50
2020/12/20 04:02:36;;;;;;;0.30;0.20;;;;;;;6.04;100.00;100530.34;5012325;28;20452;-50
2020/12/20 04:05:02;;;;;;;0.43;0.43;;;;;;;6.06;100.00;100530.34;5004244;28;20581;-50
2020/12/20 04:07:29;;;;;;;0.30;0.20;;;;;;;6.06;100.00;100527.69;5007478;28;20445;-49
2020/12/20 04:09:55;;;;;;;0.20;0.20;;;;;;;6.04;100.00;100519.81;5012376;28;20449;-50
2020/12/20 04:12:22;;;;;;;0.20;0.20;;;;;;;5.98;100.00;100525.09;5012300;28;20464;-50
2020/12/20 04:14:48;;;;;;;0.30;0.20;;;;;;;5.94;100.00;100520.75;5012326;28;21008;-50
2020/12/20 04:17:14;;;;;;;0.20;0.20;;;;;;;5.89;100.00;100527.75;5012321;28;20473;-50
2020/12/20 04:19:40;;;;;;;0.20;0.10;;;;;;;5.95;100.00;100527.75;5012185;28;20449;-50
2020/12/20 04:22:06;;;;;;;0.60;0.60;;;;;;;5.99;100.00;100534.75;5012547;28;20460;-50
2020/12/20 04:24:32;;;;;;;0.20;0.10;;;;;;;5.98;100.00;100530.38;5012427;28;20506;-50
2020/12/20 04:26:58;;;;;;;0.30;0.30;;;;;;;5.98;100.00;100532.13;5012002;28;20511;-50
2020/12/20 04:29:24;;;;;;;0.20;0.20;;;;;;;6.00;100.00;100531.25;5012149;28;20855;-50
2020/12/20 04:31:50;;;;;;;0.33;0.33;;;;;;;5.98;100.00;100530.38;5010032;28;20881;-50
2020/12/20 04:34:17;;;;;;;0.20;0.20;;;;;;;6.04;100.00;100527.72;5001640;28;20543;-50
2020/12/20 04:36:44;;;;;;;0.30;0.20;;;;;;;6.03;100.00;100533.88;5010921;28;20555;-49
2020/12/20 04:39:10;;;;;;;0.53;0.53;;;;;;;6.08;100.00;100537.34;5012253;28;20546;-50
2020/12/20 04:41:36;;;;;;;0.30;0.20;;;;;;;6.02;100.00;100533.88;5012012;28;20445;-49
2020/12/20 04:44:02;;;;;;;0.20;0.10;;;;;;;5.90;100.00;100530.44;5012249;28;20449;-49
2020/12/20 04:46:31;;;;;;;0.20;0.10;;;;;;;5.95;100.00;100540.97;5012013;28;20508;-50
2020/12/20 04:48:58;;;;;;;0.20;0.20;;;;;;;5.76;100.00;100536.66;5012573;28;20449;-49
2020/12/20 04:51:25;;;;;;;0.30;0.20;;;;;;;5.85;100.00;100536.56;5012297;28;20456;-49
2020/12/20 04:53:52;;;;;;;0.20;0.10;;;;;;;5.76;100.00;100532.25;5012349;28;20953;-51
2020/12/20 04:56:18;;;;;;;0.30;0.20;;;;;;;5.90;100.00;100526.94;5012639;28;20464;-49
2020/12/20 04:58:45;;;;;;;0.27;0.20;;;;;;;5.89;100.00;100533.03;5002016;28;20515;-49
2020/12/20 05:01:11;;;;;;;0.20;0.20;;;;;;;5.95;100.00;100533.03;5005221;28;20504;-49
2020/12/20 05:03:38;;;;;;;0.20;0.10;;;;;;;6.04;100.00;100530.34;5002322;28;20954;-50
2020/12/20 05:06:04;;;;;;;0.30;0.20;;;;;;;6.11;100.00;100531.19;4998473;28;20840;-49
2020/12/20 05:08:30;;;;;;;0.20;0.20;;;;;;;6.16;100.00;100537.28;5011387;28;20445;-50
2020/12/20 05:10:57;;;;;;;2.50;2.40;;;;;;;6.16;100.00;100534.66;5015616;28;20452;-49
2020/12/20 05:13:37;;;;;;;0.30;0.20;;;;;;;6.11;100.00;100537.34;5015552;28;20448;-49
2020/12/20 05:16:04;;;;;;;0.33;0.33;;;;;;;6.10;100.00;100540.84;5015322;28;20981;-49
2020/12/20 05:18:30;;;;;;;0.30;0.20;;;;;;;6.08;100.00;100540.00;5015343;28;21019;-50
2020/12/20 05:20:56;;;;;;;0.20;0.20;;;;;;;6.08;100.00;100545.28;5015584;28;20453;-49
2020/12/20 05:23:28;;;;;;;0.20;0.20;;;;;;;6.15;100.00;100549.63;5015381;28;20453;-49
2020/12/20 05:26:05;;;;;;;1.07;1.00;;;;;;;6.09;100.00;100541.75;5015274;28;20469;-50
2020/12/20 05:28:31;;;;;;;0.20;0.20;;;;;;;6.06;100.00;100543.53;5015263;28;20448;-51
2020/12/20 05:31:09;;;;;;;0.20;0.20;;;;;;;6.08;100.00;100550.56;5015339;28;20503;-50
2020/12/20 05:33:37;;;;;;;0.20;0.20;;;;;;;6.11;100.00;100547.88;5000634;28;20461;-49
2020/12/20 05:36:07;;;;;;;0.20;0.10;;;;;;;6.11;100.00;100545.25;5015131;28;20526;-50
2020/12/20 05:38:36;;;;;;;0.20;0.20;;;;;;;6.06;100.00;100543.53;5014809;28;20491;-50
2020/12/20 05:41:04;;;;;;;0.20;0.10;;;;;;;6.08;100.00;100550.56;5015090;28;20515;-51
2020/12/20 05:43:30;;;;;;;0.20;0.20;;;;;;;6.12;100.00;100559.31;5015231;28;20463;-50
2020/12/20 05:46:00;;;;;;;0.20;0.10;;;;;;;6.10;100.00;100554.06;5014972;28;20843;-50
2020/12/20 05:48:30;;;;;;;0.20;0.20;;;;;;;6.11;100.00;100552.28;5015197;28;20451;-50
2020/12/20 05:50:59;;;;;;;2.10;2.10;;;;;;;6.18;100.00;100546.09;5014642;28;20452;-49
2020/12/20 05:53:30;;;;;;;2.30;2.30;;;;;;;6.15;100.00;100549.63;5014533;28;20945;-50
2020/12/20 05:55:57;;;;;;;0.30;0.20;;;;;;;5.96;100.00;100537.44;5014729;28;20479;-49
2020/12/20 05:58:30;;;;;;;0.20;0.10;;;;;;;5.95;100.00;100551.50;5007917;28;20493;-50
2020/12/20 06:00:57;;;;;;;0.20;0.20;;;;;;;6.12;100.00;100554.91;5008740;28;20811;-49
2020/12/20 06:03:24;;;;;;;0.30;0.20;;;;;;;6.13;100.00;100551.38;5004855;28;20518;-49
2020/12/20 06:05:50;;;;;;;0.20;0.10;;;;;;;6.12;100.00;100557.56;5001619;28;20987;-50
2020/12/20 06:08:18;;;;;;;0.20;0.20;;;;;;;6.12;100.00;100541.72;5014612;28;20448;-50
2020/12/20 06:10:47;;;;;;;0.20;0.10;;;;;;;6.04;100.00;100548.81;5014310;28;20941;-50
2020/12/20 06:13:17;;;;;;;0.30;0.20;;;;;;;5.99;100.00;100555.00;5014320;28;20449;-49
2020/12/20 06:15:44;;;;;;;0.30;0.20;;;;;;;5.98;100.00;100561.16;5014508;28;20491;-49
2020/12/20 06:18:15;;;;;;;0.50;0.50;;;;;;;6.00;100.00;100568.19;5014290;28;20484;-50
2020/12/20 06:20:56;;;;;;;0.20;0.20;;;;;;;6.03;100.00;100577.84;5014417;28;21045;-50
2020/12/20 06:23:27;;;;;;;0.20;0.10;;;;;;;6.09;100.00;100578.69;5014330;28;20830;-50
2020/12/20 06:25:55;;;;;;;0.20;0.10;;;;;;;6.09;100.00;100576.06;5014158;28;20878;-50
2020/12/20 06:28:24;;;;;;;0.20;0.20;;;;;;;6.11;100.00;100573.41;5014534;28;20440;-51
2020/12/20 06:30:51;;;;;;;2.10;1.60;;;;;;;6.17;100.00;100578.66;5014485;28;20448;-50
2020/12/20 06:33:24;;;;;;;0.30;0.10;;;;;;;6.13;100.00;100583.06;5001204;28;20480;-50
2020/12/20 06:35:51;;;;;;;0.27;0.17;;;;;;;6.03;100.00;100597.22;5014130;28;20476;-51
2020/12/20 06:38:23;;;;;;;0.30;0.20;;;;;;;5.97;100.00;100583.16;5013960;28;20488;-50
2020/12/20 06:40:50;;;;;;;0.20;0.20;;;;;;;6.00;100.00;100586.66;5014178;28;20456;-50
2020/12/20 06:43:28;;;;;;;0.20;0.10;;;;;;;6.00;100.00;100581.38;5013953;28;20455;-52
2020/12/20 06:45:55;;;;;;;6.90;2.53;;;;;;;6.04;100.00;100587.53;5014193;28;20473;-51
2020/12/20 06:48:41;;;;;;;0.20;0.20;;;;;;;6.13;100.00;100580.41;5013938;28;20464;-51
2020/12/20 06:51:08;;;;;;;0.30;0.20;;;;;;;6.01;100.00;100575.19;5013978;28;20453;-50
2020/12/20 06:53:51;;;;;;;9.03;3.50;;;;;;;6.08;100.00;100586.63;5013425;28;20449;-49
2020/12/20 06:56:23;;;;;;;0.23;0.20;;;;;;;6.06;100.00;100586.63;5014052;28;20460;-54
2020/12/20 06:58:50;;;;;;;0.20;0.20;;;;;;;6.03;100.00;100583.09;5003350;28;20536;-54
2020/12/20 07:01:39;;;;;;;0.30;0.20;;;;;;;6.06;100.00;100576.06;5007356;28;20462;-56
2020/12/20 07:04:15;;;;;;;0.30;0.10;;;;;;;6.00;100.00;100589.28;5007065;28;20463;-55
2020/12/20 07:07:05;;;;;;;0.20;0.10;;;;;;;6.03;100.00;100591.03;5002828;28;20472;-56
2020/12/20 07:09:32;;;;;;;0.20;0.20;;;;;;;6.01;100.00;100595.44;5013617;28;20472;-54
2020/12/20 07:11:58;;;;;;;0.20;0.20;;;;;;;6.01;100.00;100601.59;5013505;28;20813;-53
2020/12/20 07:14:25;;;;;;;0.60;0.57;;;;;;;5.89;100.00;100601.59;5013000;28;20626;-56
2020/12/20 07:16:51;;;;;;;0.20;0.10;;;;;;;5.95;100.00;100601.63;5013276;28;21008;-58
2020/12/20 07:19:23;;;;;;;0.20;0.17;;;;;;;5.88;100.00;100597.22;5013053;28;20550;-53
2020/12/20 07:21:52;;;;;;;1.07;1.07;;;;;;;5.67;100.00;100586.78;5013590;28;20449;-50
2020/12/20 07:24:23;;;;;;;0.30;0.20;;;;;;;5.77;100.00;100589.38;5013487;28;20993;-57
2020/12/20 07:26:51;;;;;;;0.20;0.20;;;;;;;5.88;100.00;100605.13;5013124;28;20468;-51
2020/12/20 07:29:18;;;;;;;0.20;0.20;;;;;;;5.95;100.00;100606.91;5013041;28;20444;-53
2020/12/20 07:31:45;;;;;;;0.20;0.17;;;;;;;5.97;100.00;100610.41;5011804;28;20461;-54
2020/12/20 07:34:11;;;;;;;0.20;0.20;;;;;;;6.01;100.00;100600.72;5001398;28;20444;-55
2020/12/20 07:36:40;;;;;;;0.23;0.20;;;;;;;5.81;100.00;100593.75;5012880;28;20993;-55
2020/12/20 07:39:07;;;;;;;0.20;0.20;;;;;;;5.89;100.00;100596.34;5013271;28;20496;-51
2020/12/20 07:41:35;;;;;;;0.30;0.20;;;;;;;5.87;100.00;100598.09;5012991;28;20526;-50
2020/12/20 07:44:10;;;;;;;0.20;0.10;;;;;;;5.83;100.00;100601.66;5012951;28;20902;-50
2020/12/20 07:46:37;;;;;;;0.20;0.20;;;;;;;5.92;100.00;100601.66;5012659;28;20472;-50
2020/12/20 07:49:03;;;;;;;0.20;0.20;;;;;;;5.97;100.00;100604.25;5012986;28;20448;-51
2020/12/20 07:51:30;;;;;;;0.20;0.20;;;;;;;5.94;100.00;100607.81;5012784;28;20457;-51
2020/12/20 07:53:58;;;;;;;0.83;0.83;;;;;;;5.87;100.00;100600.75;5012889;28;20459;-51
2020/12/20 07:56:33;;;;;;;0.20;0.20;;;;;;;5.84;100.00;100595.50;5012224;28;20996;-50
2020/12/20 07:59:11;;;;;;;0.20;0.20;;;;;;;5.58;100.00;100604.38;5000897;28;20496;-52
2020/12/20 08:01:39;;;;;;;0.30;0.20;;;;;;;5.66;100.00;100599.09;4997996;28;20876;-51
2020/12/20 08:04:09;;;;;;;0.30;0.20;;;;;;;5.86;100.00;100618.34;5006760;28;20911;-51
2020/12/20 08:06:40;;;;;;;0.20;0.17;;;;;;;5.92;100.00;100617.50;5000306;28;20977;-51
2020/12/20 08:09:17;;;;;;;0.20;0.20;;;;;;;5.98;100.00;100630.63;5012620;28;20453;-52
2020/12/20 08:11:45;;;;;;;0.30;0.20;;;;;;;5.99;100.00;100621.84;5012499;28;20444;-52
2020/12/20 08:14:17;;;;;;;0.30;0.20;;;;;;;5.96;100.00;100628.91;5011541;28;20506;-51
2020/12/20 08:16:48;;;;;;;0.20;0.20;;;;;;;5.93;100.00;100628.03;5013176;28;20511;-52
2020/12/20 08:19:19;;;;;;;0.20;0.20;;;;;;;5.86;100.00;100630.66;5008078;28;20712;-50
2020/12/20 08:22:21;;;;;;;0.30;0.20;;;;;;;5.81;100.00;100640.34;5004684;28;20958;-51
2020/12/20 08:24:48;;;;;;;0.30;0.20;;;;;;;5.86;100.00;100631.53;5012568;28;20854;-51
2020/12/20 08:27:39;;;;;;;0.20;0.10;;;;;;;5.81;100.00;100629.81;5012613;28;20865;-50
2020/12/20 08:30:08;;;;;;;0.20;0.17;;;;;;;5.66;100.00;100633.38;5011145;28;20448;-50
2020/12/20 08:32:43;;;;;;;0.20;0.17;;;;;;;5.82;100.00;100640.34;5010985;28;20472;-50
2020/12/20 08:35:14;;;;;;;0.20;0.20;;;;;;;5.79;100.00;100642.13;5012334;28;20449;-50
2020/12/20 08:37:42;;;;;;;0.20;0.20;;;;;;;5.65;100.00;100628.97;5012592;28;20488;-50
2020/12/20 08:40:14;;;;;;;0.20;0.20;;;;;;;5.77;100.00;100630.72;5012485;28;20942;-49
2020/12/20 08:42:42;;;;;;;0.20;0.20;;;;;;;5.60;100.00;100633.38;5012820;28;20468;-50
2020/12/20 08:45:19;;;;;;;0.20;0.20;;;;;;;5.72;100.00;100633.34;5015940;28;20457;-49
2020/12/20 08:47:46;;;;;;;0.20;0.20;;;;;;;5.65;100.00;100627.22;5016302;28;20495;-50
2020/12/20 08:50:14;;;;;;;0.30;0.20;;;;;;;5.67;100.00;100627.22;5016601;28;20448;-50
2020/12/20 08:52:40;;;;;;;0.20;0.13;;;;;;;5.82;100.00;100634.19;5016569;28;20445;-50
2020/12/20 08:55:08;;;;;;;0.20;0.20;;;;;;;5.80;100.00;100646.50;5016056;28;20456;-50
2020/12/20 08:57:35;;;;;;;0.20;0.10;;;;;;;5.78;100.00;100648.28;5015994;28;20813;-48
2020/12/20 09:00:17;;;;;;;0.20;0.10;;;;;;;5.73;100.00;100640.38;5004016;28;20491;-48
2020/12/20 09:02:44;;;;;;;0.20;0.20;;;;;;;5.73;100.00;100647.41;5003484;28;20830;-48
2020/12/20 09:05:15;;;;;;;0.20;0.10;;;;;;;5.64;100.00;100653.59;5016376;28;20507;-48
2020/12/20 09:07:47;;;;;;;0.87;0.87;;;;;;;5.73;100.00;100648.28;5016680;28;20471;-50
2020/12/20 09:10:19;;;;;;;0.20;0.10;;;;;;;5.76;100.00;100648.28;5005374;28;20450;-48
2020/12/20 09:12:49;;;;;;;0.20;0.20;;;;;;;6.02;100.00;100655.25;5015116;28;20444;-53
2020/12/20 09:15:18;;;;;;;0.80;0.80;;;;;;;6.09;100.00;100657.84;5015736;28;20449;-52
2020/12/20 09:17:46;;;;;;;2.10;0.57;;;;;;;6.23;100.00;100660.44;5002464;28;20848;-48
2020/12/20 09:20:15;;;;;;;5.93;4.17;;;;;;;6.33;100.00;100669.19;5014031;28;20457;-49
2020/12/20 09:22:51;;;;;;;0.30;0.20;;;;;;;6.33;100.00;100679.75;4996283;28;20512;-52
2020/12/20 09:25:38;;;;;;;0.27;0.20;;;;;;;6.32;100.00;100688.56;5009008;28;20459;-51
2020/12/20 09:28:12;;;;;;;0.23;0.20;;;;;;;6.40;100.00;100689.38;5006643;28;20757;-50
2020/12/20 09:30:42;;;;;;;0.63;0.63;;;;;;;6.41;100.00;100697.28;5007669;28;20456;-50
2020/12/20 09:33:21;;;;;;;0.40;0.40;;;;;;;6.42;100.00;100696.41;4995470;28;20460;-50
2020/12/20 09:36:08;;;;;;;1.90;1.80;;;;;;;6.38;100.00;100701.72;5001101;28;20824;-49
2020/12/20 09:38:38;;;;;;;0.30;0.20;;;;;;;6.38;100.00;100704.34;5001191;28;20498;-54
2020/12/20 09:41:07;;;;;;;0.20;0.20;;;;;;;6.40;100.00;100706.09;5002546;28;20449;-52
2020/12/20 09:43:33;;;;;;;0.20;0.20;;;;;;;6.42;100.00;100700.81;5012395;28;20456;-50
2020/12/20 09:46:00;;;;;;;0.30;0.20;;;;;;;6.50;100.00;100704.28;5013012;28;20567;-55
2020/12/20 09:48:27;;;;;;;0.30;0.20;;;;;;;6.47;100.00;100701.69;5014134;28;20452;-50
2020/12/20 09:50:54;;;;;;;0.20;0.20;;;;;;;6.72;100.00;100699.78;5014946;28;20464;-51
2020/12/20 09:53:22;;;;;;;0.20;0.20;;;;;;;6.75;100.00;100699.75;5012691;28;20822;-51
2020/12/20 09:55:48;;;;;;;0.70;0.70;;;;;;;6.62;100.00;100692.78;5013089;28;20476;-51
2020/12/20 09:58:14;;;;;;;0.30;0.20;;;;;;;6.56;100.00;100688.41;4999788;28;20887;-51
2020/12/20 10:00:42;;;;;;;0.20;0.20;;;;;;;6.63;100.00;100681.34;5013969;28;20456;-51
2020/12/20 10:03:09;;;;;;;0.30;0.20;;;;;;;6.63;100.00;100689.25;5010202;28;20866;-53
2020/12/20 10:05:35;;;;;;;0.30;0.20;;;;;;;6.67;100.00;100685.69;5001265;28;20477;-52
2020/12/20 10:08:02;;;;;;;0.27;0.20;;;;;;;6.64;100.00;100691.00;5013884;28;20460;-51
2020/12/20 10:10:29;;;;;;;0.30;0.20;;;;;;;6.72;100.00;100686.56;5014865;28;21006;-51
2020/12/20 10:12:57;;;;;;;0.30;0.10;;;;;;;6.77;100.00;100683.00;5015022;28;20448;-51
2020/12/20 10:15:24;;;;;;;0.30;0.20;;;;;;;6.74;100.00;100687.44;5014845;28;21004;-51
2020/12/20 10:17:51;;;;;;;8.70;7.93;;;;;;;6.74;100.00;100683.03;5014744;28;20452;-52
2020/12/20 10:20:17;;;;;;;0.30;0.20;;;;;;;6.90;100.00;100683.78;5014748;28;20456;-52
2020/12/20 10:22:44;;;;;;;0.30;0.20;;;;;;;6.90;100.00;100686.44;4995101;28;20453;-52
2020/12/20 10:25:16;;;;;;;0.27;0.20;;;;;;;6.95;100.00;100683.75;5009045;28;20451;-51
2020/12/20 10:27:42;;;;;;;0.30;0.20;;;;;;;7.02;100.00;100693.41;5014642;28;20456;-51
2020/12/20 10:30:08;;;;;;;0.30;0.20;;;;;;;6.87;100.00;100690.88;5014512;28;20449;-51
2020/12/20 10:32:34;;;;;;;0.30;0.20;;;;;;;6.71;100.00;100688.31;5007002;28;20531;-51
2020/12/20 10:35:00;;;;;;;0.30;0.20;;;;;;;6.81;100.00;100689.13;5008159;28;20499;-51
2020/12/20 10:37:26;;;;;;;0.30;0.20;;;;;;;6.77;100.00;100683.00;5002415;28;20974;-51
2020/12/20 10:39:53;;;;;;;0.23;0.20;;;;;;;6.80;100.00;100695.31;5014309;28;20511;-51
2020/12/20 10:42:19;;;;;;;0.93;0.93;;;;;;;6.93;100.00;100690.81;5014385;28;20448;-51
2020/12/20 10:44:45;;;;;;;5.83;1.83;;;;;;;7.01;100.00;100696.94;5014402;28;20486;-51
2020/12/20 10:47:11;;;;;;;0.30;0.20;;;;;;;6.96;100.00;100694.31;5014301;28;20473;-51
2020/12/20 10:49:38;;;;;;;0.30;0.20;;;;;;;6.96;100.00;100683.72;5012645;28;20474;-51
2020/12/20 10:52:04;;;;;;;0.30;0.20;;;;;;;7.11;100.00;100680.09;4994256;28;20504;-51
2020/12/20 10:54:30;;;;;;;0.60;0.60;;;;;;;7.02;100.00;100672.25;4994605;28;20453;-52
2020/12/20 10:56:58;;;;;;;0.30;0.20;;;;;;;6.96;100.00;100673.16;5014028;28;20491;-51
2020/12/20 10:59:32;;;;;;;0.40;0.40;;;;;;;6.95;100.00;100671.41;5000605;28;20525;-51
2020/12/20 11:01:59;;;;;;;0.30;0.20;;;;;;;6.95;100.00;100681.09;5003764;28;20449;-51
2020/12/20 11:04:25;;;;;;;0.30;0.20;;;;;;;6.93;100.00;100672.31;5010486;28;20515;-51
2020/12/20 11:06:56;;;;;;;0.30;0.20;;;;;;;6.96;100.00;100665.22;5002927;28;21047;-52
2020/12/20 11:09:24;;;;;;;0.30;0.20;;;;;;;7.06;100.00;100666.03;4997862;28;20456;-51
2020/12/20 11:11:51;;;;;;;0.30;0.20;;;;;;;7.01;100.00;100665.22;5013592;28;20456;-51
2020/12/20 11:14:17;;;;;;;0.30;0.20;;;;;;;7.04;100.00;100670.47;5013420;28;20449;-51
2020/12/20 11:16:43;;;;;;;0.30;0.20;;;;;;;7.08;100.00;100665.13;5013983;28;20479;-51
2020/12/20 11:19:09;;;;;;;0.30;0.20;;;;;;;7.23;100.00;100664.13;5013008;28;20488;-51
2020/12/20 11:21:36;;;;;;;0.30;0.20;;;;;;;7.22;100.00;100665.03;5013219;28;20452;-50
2020/12/20 11:24:02;;;;;;;0.30;0.20;;;;;;;7.26;100.00;100665.84;5013259;28;20452;-51
2020/12/20 11:26:29;;;;;;;0.30;0.20;;;;;;;7.32;100.00;100671.97;5013115;28;20476;-51
2020/12/20 11:28:56;;;;;;;0.30;0.20;;;;;;;7.14;100.00;100674.81;5013179;28;20522;-51
2020/12/20 11:31:25;;;;;;;0.30;0.20;;;;;;;7.26;100.00;100672.03;5028806;28;20520;-52